• Join FlightAware (Why Join?)
  • Login
  • US Flag 
03:23PM EDT


 

Airport Tracker/Info


-or-


 

Live Flight TrackerFlight Track Log ✈ AAL1491 ✈ 13-May-2013 ✈ KDFW - KSFO

Flight Track Log - Related Links

Times and Time Zones

All times are in EDT time to prevent confusion due to time zone crossing. See the AAL1491 flight status page for this flight to view local times or setup timezone preferences in your user account.

Time Position Orientation Groundspeed Altitude Reporting Facility
EDT Latitude Longitude Course Direction KTS MPH feet Rate Location/Type
03:42PM 32.8833 -97.0500 301° West 165 190 1,600  Level Dallas / Fort Worth TRACON
03:43PM 32.8333 -97.0667 196° South 210 242 2,800 1,560 Climbing Dallas / Fort Worth TRACON
03:44PM 32.7667 -97.1000 203° Southwest 246 283 4,800 2,040 Climbing Dallas / Fort Worth TRACON
03:45PM 32.8133 -97.3382 298° West  Level FlightAware Approximate
03:45PM 32.7667 -97.1833 270° West 260 299 6,900  Level Dallas / Fort Worth TRACON
03:46PM 32.8677 -97.4692 296° West  Level FlightAware Approximate
03:47PM 32.9176 -97.6026 294° West  Level FlightAware Approximate
03:48PM 32.9680 -97.7359 301° West  Level FlightAware Approximate
03:51PM 32.9770 -97.7360 270° West 407 468 18,300  Level FlightAware
03:51PM 32.9940 -97.8150 284° West 407 468 19,000 900 Climbing FlightAware
03:52PM 33.0000 -97.8570 280° West 425 489 19,700 420 Climbing FlightAware
03:53PM 33.0140 -97.9350 282° West 425 489 19,700  Level FlightAware
03:54PM 33.0280 -98.0130 282° West 425 489 19,700  Level FlightAware
03:54PM 33.0420 -98.0910 282° West 425 489 19,700  Level FlightAware
03:55PM 33.0560 -98.1690 282° West 425 489 19,700 3,360 Level FlightAware
03:57PM 33.1820 -98.6130 289° West 481 554 28,800 3,480 Climbing FlightAware
03:58PM 33.2130 -98.6900 296° West 481 554 28,800 1,020 Level FlightAware
03:58PM 33.2580 -98.8020 296° West 483 556 30,200 960 Climbing FlightAware
03:59PM 33.2900 -98.8840 295° West 483 556 30,200  Level FlightAware
04:00PM 33.3230 -98.9670 295° West 483 556 30,200  Level FlightAware
04:00PM 33.3630 -99.0700 295° West 483 556 30,200  Level FlightAware
04:01PM 33.3950 -99.1520 295° West 483 556 30,200  Level FlightAware
04:02PM 33.4270 -99.2350 295° West 483 556 30,200  Level FlightAware
04:02PM 33.4590 -99.3170 295° West 483 556 30,200  Level FlightAware
04:03PM 33.4910 -99.4000 295° West 483 556 30,200  Level FlightAware
04:04PM 33.5230 -99.4820 295° West 483 556 30,200  Level FlightAware
04:05PM 33.5630 -99.5860 295° West 483 556 30,200  Level FlightAware
04:05PM 33.5950 -99.6680 295° West 483 556 30,200  Level FlightAware
04:06PM 33.6280 -99.7510 296° West 483 556 30,200  Level FlightAware
04:07PM 33.6600 -99.8340 295° West 483 556 30,200  Level FlightAware
04:07PM 33.7000 -99.9370 295° West 483 556 30,200 5,460 Level FlightAware
04:08PM 33.8181 -100.2025 295° West 468 539 38,000 5,460 Climbing Albuquerque Center
04:09PM 33.8642 -100.3175 296° West 470 541 38,000  Level Fort Worth Center
04:10PM 33.9192 -100.4594 295° West 470 541 38,000  Level Fort Worth Center
04:11PM 33.9742 -100.6017 295° West 470 541 38,000  Level Fort Worth Center
04:12PM 34.0289 -100.7417 295° West 470 541 38,000  Level Fort Worth Center
04:13PM 34.0836 -100.8792 296° West 465 535 38,000  Level Fort Worth Center
04:14PM 34.1358 -101.0242 294° West 465 535 38,000  Level Fort Worth Center
04:15PM 34.1939 -101.1722 295° West 485 558 38,000  Level Fort Worth Center
04:17PM 34.3247 -101.5217 294° West 479 551 38,000  Level Albuquerque Center
04:18PM 34.3803 -101.6686 295° West 480 552 38,000  Level Albuquerque Center
04:19PM 34.4339 -101.8150 294° West 477 549 38,000  Level Albuquerque Center
04:20PM 34.4886 -101.9631 294° West 479 551 38,000  Level Albuquerque Center
04:21PM 34.5428 -102.1097 294° West 476 548 38,000  Level Albuquerque Center
04:22PM 34.5958 -102.2569 294° West 475 547 38,000  Level Albuquerque Center
04:24PM 34.6611 -102.4336 294° West 476 548 38,000  Level Albuquerque Center
04:25PM 34.7156 -102.5822 294° West 479 551 38,000  Level Albuquerque Center
04:26PM 34.7714 -102.7378 294° West 481 554 38,000  Level Albuquerque Center
04:27PM 34.8258 -102.8889 294° West 483 556 38,000  Level Albuquerque Center
04:28PM 34.8806 -103.0406 294° West 485 558 38,000  Level Albuquerque Center
04:29PM 34.9364 -103.1936 294° West 488 562 38,000  Level Albuquerque Center
04:30PM 34.9903 -103.3464 293° West 487 560 38,000  Level Albuquerque Center
04:31PM 35.0450 -103.4989 294° West 487 560 38,000  Level Albuquerque Center
04:32PM 35.0994 -103.6511 294° West 487 560 38,000  Level Albuquerque Center
04:33PM 35.1617 -103.8286 293° West 486 559 38,000  Level Albuquerque Center
04:34PM 35.2111 -103.9706 293° West 484 557 38,000  Level Albuquerque Center
04:40PM 35.5130 -104.8530 293° West 477 549 38,000  Level FlightAware
04:40PM 35.5470 -104.9570 292° West 477 549 38,000  Level FlightAware
04:41PM 35.5750 -105.0420 292° West 477 549 38,000  Level FlightAware
04:42PM 35.6030 -105.1280 292° West 477 549 38,000  Level FlightAware
04:42PM 35.6320 -105.2130 293° West 477 549 38,000  Level FlightAware
04:43PM 35.6600 -105.2990 292° West 477 549 38,000  Level FlightAware
04:44PM 35.6950 -105.4060 292° West 477 549 38,000  Level FlightAware
04:45PM 35.7230 -105.4920 292° West 477 549 38,000  Level FlightAware
04:45PM 35.7510 -105.5780 292° West 477 549 38,000  Level FlightAware
04:46PM 35.8220 -105.7810 293° West 474 545 38,000  Level FlightAware
04:47PM 35.8630 -105.9050 292° West 472 543 38,000  Level FlightAware
04:47PM 35.9050 -106.0360 292° West 470 541 38,000  Level FlightAware
04:48PM 35.9430 -106.1530 292° West 469 540 38,000  Level FlightAware
04:49PM 35.9870 -106.2890 292° West 469 540 38,000  Level FlightAware
04:50PM 36.0210 -106.3960 291° West 467 537 38,000  Level FlightAware
04:50PM 36.0490 -106.4820 292° West 467 537 38,000  Level FlightAware
04:51PM 36.0850 -106.5930 292° West 466 536 38,000  Level FlightAware
04:52PM 36.1240 -106.7180 291° West 465 535 38,000  Level FlightAware
04:53PM 36.1600 -106.8320 291° West 464 534 38,000  Level FlightAware
04:53PM 36.1800 -106.8960 291° West 464 534 38,000  Level FlightAware
04:54PM 36.2060 -106.9800 291° West 464 534 38,000  Level FlightAware
04:55PM 36.2520 -107.1220 292° West 462 532 38,000  Level FlightAware
04:56PM 36.2840 -107.2240 291° West 462 532 38,000  Level FlightAware
04:56PM 36.3100 -107.3080 291° West 462 532 38,000  Level FlightAware
04:57PM 36.3580 -107.4640 291° West 465 535 38,000  Level FlightAware
04:58PM 36.3840 -107.5490 291° West 465 535 38,000  Level FlightAware
04:59PM 36.4170 -107.6550 291° West 465 535 38,000  Level FlightAware
04:59PM 36.4430 -107.7400 291° West 465 535 38,000  Level FlightAware
05:00PM 36.4700 -107.8250 292° West 465 535 38,000  Level FlightAware
05:01PM 36.4960 -107.9100 291° West 465 535 38,000  Level FlightAware
05:01PM 36.5220 -107.9940 291° West 465 535 38,000  Level FlightAware
05:02PM 36.5850 -108.2060 290° West 463 533 38,000  Level FlightAware
05:03PM 36.6150 -108.3050 291° West 463 533 38,000  Level FlightAware
05:03PM 36.6460 -108.4100 290° West 462 532 38,000  Level FlightAware
05:04PM 36.6800 -108.5240 290° West 464 534 38,000  Level FlightAware
05:05PM 36.7060 -108.6100 291° West 465 535 38,000  Level FlightAware
05:06PM 36.7400 -108.7270 290° West 463 533 38,000  Level FlightAware
05:06PM 36.7670 -108.8180 290° West 462 532 38,000  Level FlightAware
05:07PM 36.7980 -108.9220 290° West 462 532 38,000  Level FlightAware
05:08PM 36.8330 -109.0430 290° West 457 526 38,000  Level FlightAware
05:08PM 36.8590 -109.1300 291° West 457 526 38,000  Level FlightAware
05:10PM 36.9440 -109.4240 290° West 457 526 38,000  Level FlightAware
05:11PM 36.9670 -109.5090 289° West 457 526 38,000  Level FlightAware
05:12PM 36.9900 -109.5940 289° West 457 526 38,000  Level FlightAware
05:12PM 37.0140 -109.6790 289° West 457 526 38,000  Level FlightAware
05:13PM 37.0370 -109.7640 289° West 457 526 38,000  Level FlightAware
05:14PM 37.0610 -109.8500 289° West 457 526 38,000  Level FlightAware
05:14PM 37.0900 -109.9560 289° West 457 526 38,000  Level FlightAware
05:15PM 37.1130 -110.0410 289° West 457 526 38,000  Level FlightAware
05:16PM 37.1370 -110.1270 289° West 457 526 38,000  Level FlightAware
05:16PM 37.1600 -110.2120 289° West 457 526 38,000  Level FlightAware
05:17PM 37.1830 -110.2970 289° West 457 526 38,000  Level FlightAware
05:18PM 37.2130 -110.4040 289° West 457 526 38,000  Level FlightAware
05:19PM 37.2360 -110.4890 289° West 457 526 38,000  Level FlightAware
05:19PM 37.2590 -110.5750 289° West 457 526 38,000  Level FlightAware
05:20PM 37.3572 -110.8936 289° West 462 532 38,000  Level Denver Center
05:21PM 37.3986 -111.0450 289° West 460 529 38,000  Level Denver Center
05:22PM 37.4397 -111.1958 289° West 457 526 38,000  Level Denver Center
05:23PM 37.4797 -111.3464 289° West 456 525 38,000  Level Denver Center
05:24PM 37.5214 -111.4969 289° West 456 525 38,000  Level Denver Center
05:25PM 37.5606 -111.6486 288° West 457 526 38,000  Level Denver Center
05:26PM 37.6089 -111.8292 289° West 456 525 38,000  Level Denver Center
05:27PM 37.6492 -111.9794 289° West 455 524 38,000  Level Denver Center
05:28PM 37.6558 -112.0100 285° West 455 524 38,000  Level Salt Lake Center
05:29PM 37.7036 -112.1903 289° West 453 521 38,000  Level Salt Lake Center
05:30PM 37.7422 -112.3392 288° West 451 519 38,000  Level Salt Lake Center
05:31PM 37.7808 -112.4883 288° West 450 518 38,000  Level Salt Lake Center
05:32PM 37.8192 -112.6378 288° West 451 519 38,000  Level Salt Lake Center
05:33PM 37.8569 -112.7869 288° West 452 520 38,000  Level Salt Lake Center
05:34PM 37.8947 -112.9375 288° West 455 524 38,000  Level Salt Lake Center
05:35PM 37.9389 -113.1161 287° West 450 518 38,000  Level Salt Lake Center
05:36PM 37.9758 -113.2658 287° West 449 517 38,000  Level Salt Lake Center
05:37PM 38.0128 -113.4150 287° West 447 514 38,000  Level Salt Lake Center
05:43PM 38.2370 -114.3390 287° West 440 506 38,000  Level FlightAware
05:43PM 38.2540 -114.4150 286° West 440 506 38,000  Level FlightAware
05:44PM 38.2780 -114.5210 286° West 440 506 38,000  Level FlightAware
05:45PM 38.2970 -114.6060 286° West 440 506 38,000  Level FlightAware
05:46PM 38.3160 -114.6900 286° West 440 506 38,000  Level FlightAware
05:46PM 38.3350 -114.7750 286° West 440 506 38,000  Level FlightAware
05:47PM 38.3590 -114.8810 286° West 440 506 38,000  Level FlightAware
05:48PM 38.3780 -114.9660 286° West 440 506 38,000  Level FlightAware
05:48PM 38.3970 -115.0510 286° West 440 506 38,000  Level FlightAware
05:49PM 38.4160 -115.1360 286° West 440 506 38,000  Level FlightAware
05:50PM 38.4350 -115.2210 286° West 440 506 38,000  Level FlightAware
05:51PM 38.4590 -115.3270 286° West 440 506 38,000  Level FlightAware
05:51PM 38.4780 -115.4120 286° West 440 506 38,000  Level FlightAware
05:52PM 38.4970 -115.4970 286° West 440 506 38,000  Level FlightAware
05:53PM 38.5160 -115.5820 286° West 440 506 38,000  Level FlightAware
05:53PM 38.3911 -115.8708 286° West 432 497 38,000  Level Oakland Center
05:54PM 38.4044 -116.0211 277° West 431 496 38,000  Level Oakland Center
05:55PM 38.4169 -116.1719 276° West 428 493 38,000  Level Oakland Center
05:56PM 38.3886 -116.3150 256° West 420 483 38,000  Level Oakland Center
05:57PM 38.3522 -116.4600 252° West 425 489 38,000  Level Oakland Center
05:58PM 38.3150 -116.6025 252° West 426 490 38,000  Level Oakland Center
05:59PM 38.2700 -116.7739 252° West 426 490 38,000  Level Oakland Center
06:00PM 38.2336 -116.9153 252° West 423 487 38,000  Level Oakland Center
06:00PM 38.2261 -116.9436 251° West 422 486 38,000  Level Salt Lake Center
06:01PM 38.1897 -117.0825 252° West 418 481 38,000  Level Salt Lake Center
06:02PM 38.1561 -117.2025 250° West 431 496 38,000  Level Oakland Center
06:03PM 38.1186 -117.3431 251° West 428 493 38,000  Level Oakland Center
06:04PM 38.0781 -117.4958 251° West 420 483 38,000  Level Oakland Center
06:05PM 38.0397 -117.6350 251° West 419 482 38,000  Level Oakland Center
06:06PM 38.0022 -117.7747 251° West 418 481 38,000  Level Oakland Center
06:12PM 37.9150 -118.5900 251° West 424 488 38,000  Level FlightAware
06:12PM 37.9040 -118.6880 262° West 422 486 38,000  Level FlightAware
06:13PM 37.8920 -118.7870 261° West 423 487 38,000  Level FlightAware
06:14PM 37.8820 -118.8700 261° West 423 487 38,000  Level FlightAware
06:15PM 37.8690 -119.0020 263° West 419 482 38,000  Level FlightAware
06:15PM 37.8560 -119.1150 262° West 421 484 38,000  Level FlightAware
06:16PM 37.8450 -119.2120 262° West 418 481 38,000  Level FlightAware
06:17PM 37.8330 -119.3070 261° West 417 480 38,000  Level FlightAware
06:17PM 37.8200 -119.4170 262° West 417 480 38,000 -240 Level FlightAware
06:18PM 37.8090 -119.5150 262° West 420 483 37,700 -780 Descending FlightAware
06:19PM 37.7970 -119.6130 261° West 423 487 37,000 -1,020 Descending FlightAware
06:20PM 37.7840 -119.7220 261° West 425 489 36,300 -960 Descending FlightAware
06:20PM 37.7720 -119.8180 261° West 424 488 35,700 -960 Descending FlightAware
06:21PM 37.7580 -119.9320 261° West 423 487 35,000 -1,020 Descending FlightAware
06:22PM 37.7470 -120.0240 261° West 422 486 34,300 -720 Descending FlightAware
06:22PM 37.7320 -120.1390 261° West 425 489 34,000 -1,320 Descending FlightAware
06:23PM 37.7210 -120.2350 262° West 434 499 32,500 -2,580 Descending FlightAware
06:24PM 37.7090 -120.3320 261° West 432 497 30,600 -2,640 Descending FlightAware
06:24PM 37.6940 -120.4450 261° West 421 484 28,800 -2,400 Descending FlightAware
06:25PM 37.6810 -120.5440 261° West 409 471 27,200 -2,220 Descending FlightAware
06:26PM 37.6690 -120.6410 261° West 397 457 25,700 -2,160 Descending FlightAware
06:27PM 37.6560 -120.7370 260° West 386 444 24,200 -2,220 Descending FlightAware
06:27PM 37.6450 -120.8220 261° West 374 430 22,800 -1,980 Descending FlightAware
06:28PM 37.6330 -120.9150 261° West 365 420 21,400 -1,980 Descending FlightAware
06:29PM 37.6220 -121.0010 261° West 367 422 20,000 -2,040 Descending FlightAware
06:29PM 37.6130 -121.0870 263° West 364 419 18,700 -1,980 Descending FlightAware
06:30PM 37.6030 -121.1790 262° West 357 411 17,200 -2,160 Descending FlightAware
06:31PM 37.5930 -121.2620 261° West 351 404 15,700 -2,220 Descending FlightAware
06:31PM 37.5840 -121.3410 262° West 345 397 14,300 -2,040 Descending FlightAware
06:32PM 37.5720 -121.4410 261° West 343 395 12,700 -2,040 Descending FlightAware
06:33PM 37.5600 -121.5170 259° West 340 391 11,300 -1,440 Descending FlightAware
06:33PM 37.5460 -121.5840 255° West 323 372 10,900 -300 Descending FlightAware
06:34PM 37.5300 -121.6570 255° West 289 333 10,900 -600 Level FlightAware
06:35PM 37.5160 -121.7210 255° West 268 308 10,100 -1,320 Descending FlightAware
06:35PM 37.5060 -121.7650 254° West 267 307 9,400 -1,500 Descending FlightAware
06:36PM 37.4970 -121.8120 256° West 268 308 8,600 -1,440 Descending FlightAware
06:36PM 37.4870 -121.8560 254° West 264 304 8,000 -900 Descending FlightAware
06:37PM 37.4860 -121.8960 268° West 271 312 7,800 -780 Descending FlightAware
06:37PM 37.4950 -121.9430 284° West 266 306 7,300 -1,200 Descending FlightAware
06:38PM 37.5030 -121.9860 283° West 264 304 6,600 -1,440 Descending FlightAware
06:38PM 37.5100 -122.0160 286° West 264 304 6,100 -1,320 Descending FlightAware
06:39PM 37.5240 -122.0580 293° West 253 291 5,500 -1,380 Descending FlightAware
06:41PM 37.5690 -122.2040 291° West 242 278 2,800 -1,440 Descending FlightAware